Time;durP1;ratioP1;P1;durP2;ratioP2;P2;SDS_P1;SDS_P2;PMS_P1;PMS_P2;Temp;Humidity;BMP_temperature;BMP_pressure;BME280_temperature;BME280_humidity;BME280_pressure;Samples;Min_cycle;Max_cycle;Signal;HPM_P1;HPM_P2
2023/01/23 00:00:26;;;;;;;34.95;13.18;;;;;;;;;;4967444;28;20026;-71
2023/01/23 00:02:51;;;;;;;29.48;10.98;;;;;;;;;;4983133;28;20041;-71
2023/01/23 00:05:17;;;;;;;29.17;9.93;;;;;;;;;;4970345;28;20034;-71
2023/01/23 00:07:42;;;;;;;24.23;10.13;;;;;;;;;;4970998;28;20037;-71
2023/01/23 00:10:08;;;;;;;28.02;10.30;;;;;;;;;;4964651;28;20079;-71
2023/01/23 00:12:34;;;;;;;32.15;12.35;;;;;;;;;;4970224;28;20101;-71
2023/01/23 00:14:59;;;;;;;24.98;11.25;;;;;;;;;;4970248;28;20027;-71
2023/01/23 00:17:26;;;;;;;38.10;12.88;;;;;;;;;;4970599;28;20033;-71
2023/01/23 00:19:54;;;;;;;34.88;11.07;;;;;;;;;;4971260;28;20110;-71
2023/01/23 00:22:20;;;;;;;29.52;10.57;;;;;;;;;;4971465;28;20027;-71
2023/01/23 00:24:45;;;;;;;28.85;12.05;;;;;;;;;;4965282;28;20028;-71
2023/01/23 00:27:11;;;;;;;28.63;10.25;;;;;;;;;;4962940;28;20114;-71
2023/01/23 00:29:36;;;;;;;32.47;10.90;;;;;;;;;;4964809;28;20047;-71
2023/01/23 00:32:01;;;;;;;31.52;11.60;;;;;;;;;;4970217;28;20043;-71
2023/01/23 00:34:27;;;;;;;34.50;12.32;;;;;;;;;;4971081;28;20137;-71
2023/01/23 00:36:52;;;;;;;30.35;11.65;;;;;;;;;;4971007;28;20059;-71
2023/01/23 00:39:20;;;;;;;26.65;10.90;;;;;;;;;;4969722;28;20031;-71
2023/01/23 00:41:47;;;;;;;24.90;9.43;;;;;;;;;;4970495;28;20081;-71
2023/01/23 00:44:13;;;;;;;32.38;12.63;;;;;;;;;;4970807;28;20943;-71
2023/01/23 00:46:38;;;;;;;32.50;12.25;;;;;;;;;;4969108;28;20039;-71
2023/01/23 00:49:04;;;;;;;31.45;11.48;;;;;;;;;;4968463;28;20125;-71
2023/01/23 00:51:30;;;;;;;30.38;11.40;;;;;;;;;;4970045;28;20117;-71
2023/01/23 00:53:55;;;;;;;29.15;12.20;;;;;;;;;;4959267;28;20031;-71
2023/01/23 00:56:21;;;;;;;27.08;10.75;;;;;;;;;;4969742;28;20035;-71
2023/01/23 00:58:46;;;;;;;27.95;11.40;;;;;;;;;;4957590;28;20031;-71
2023/01/23 01:01:13;;;;;;;33.58;10.02;;;;;;;;;;4957195;28;20404;-71
2023/01/23 01:03:38;;;;;;;30.90;11.50;;;;;;;;;;4965444;28;20050;-71
2023/01/23 01:06:04;;;;;;;37.85;12.10;;;;;;;;;;4970564;28;20023;-71
2023/01/23 01:08:29;;;;;;;31.13;12.02;;;;;;;;;;4969626;28;20031;-71
2023/01/23 01:10:54;;;;;;;31.73;10.93;;;;;;;;;;4968613;28;20031;-71
2023/01/23 01:13:22;;;;;;;25.02;10.82;;;;;;;;;;4970003;28;20050;-71
2023/01/23 01:15:48;;;;;;;32.13;11.40;;;;;;;;;;4965098;28;20548;-71
2023/01/23 01:18:14;;;;;;;36.35;13.45;;;;;;;;;;4968428;28;20023;-71
2023/01/23 01:20:40;;;;;;;37.25;13.02;;;;;;;;;;4970201;28;20030;-71
2023/01/23 01:23:06;;;;;;;30.55;11.18;;;;;;;;;;4969661;28;20160;-71
2023/01/23 01:25:31;;;;;;;40.10;12.57;;;;;;;;;;4969790;28;20524;-71
2023/01/23 01:27:57;;;;;;;39.28;14.07;;;;;;;;;;4962721;28;20511;-71
2023/01/23 01:30:25;;;;;;;37.80;11.65;;;;;;;;;;4968564;28;20660;-71
2023/01/23 01:32:52;;;;;;;41.03;13.27;;;;;;;;;;4970186;28;20499;-71
2023/01/23 01:35:17;;;;;;;24.83;9.02;;;;;;;;;;4961198;28;20031;-71
2023/01/23 01:37:43;;;;;;;33.92;12.52;;;;;;;;;;4978836;28;20031;-71
2023/01/23 01:40:17;;;;;;;40.45;13.15;;;;;;;;;;4968395;28;20437;-71
2023/01/23 01:42:49;;;;;;;32.40;13.73;;;;;;;;;;4965049;28;20034;-71
2023/01/23 01:45:52;;;;;;;33.17;12.25;;;;;;;;;;4967702;28;20039;-71
2023/01/23 01:48:20;;;;;;;34.08;11.02;;;;;;;;;;4983058;28;20022;-71
2023/01/23 01:50:46;;;;;;;29.73;11.52;;;;;;;;;;4982208;28;20054;-71
2023/01/23 01:53:12;;;;;;;31.40;11.00;;;;;;;;;;4966825;28;20043;-71
2023/01/23 01:55:38;;;;;;;35.65;13.38;;;;;;;;;;4965245;28;20122;-71
2023/01/23 01:58:04;;;;;;;39.22;14.73;;;;;;;;;;4957052;28;20106;-71
2023/01/23 02:00:29;;;;;;;35.22;12.10;;;;;;;;;;4961124;28;20019;-71
2023/01/23 02:03:01;;;;;;;32.78;13.43;;;;;;;;;;4961633;28;20018;-71
2023/01/23 02:05:32;;;;;;;33.63;12.02;;;;;;;;;;4984356;28;20503;-71
2023/01/23 02:08:18;;;;;;;33.00;12.27;;;;;;;;;;4967259;28;20109;-71
2023/01/23 02:10:44;;;;;;;35.70;11.50;;;;;;;;;;4950569;28;20178;-72
2023/01/23 02:13:35;;;;;;;38.10;12.40;;;;;;;;;;4964038;28;20114;-71
2023/01/23 02:16:05;;;;;;;33.65;12.98;;;;;;;;;;4949544;28;20043;-71
2023/01/23 02:18:32;;;;;;;27.17;11.55;;;;;;;;;;4965093;28;20057;-71
2023/01/23 02:21:02;;;;;;;35.75;13.43;;;;;;;;;;4968194;28;20026;-71
2023/01/23 02:23:33;;;;;;;40.22;13.43;;;;;;;;;;4952781;28;20042;-71
2023/01/23 02:26:27;;;;;;;38.83;12.73;;;;;;;;;;4966202;28;20046;-71
2023/01/23 02:28:54;;;;;;;38.22;13.00;;;;;;;;;;4957012;28;20039;-71
2023/01/23 02:31:21;;;;;;;39.40;11.70;;;;;;;;;;4968556;28;20045;-71
2023/01/23 02:33:52;;;;;;;30.65;11.13;;;;;;;;;;4968190;28;20047;-71
2023/01/23 02:36:20;;;;;;;31.80;12.60;;;;;;;;;;4967507;28;20408;-71
2023/01/23 02:39:07;;;;;;;46.97;14.52;;;;;;;;;;4969150;28;20030;-72
2023/01/23 02:41:36;;;;;;;32.58;12.18;;;;;;;;;;4982808;28;20043;-71
2023/01/23 02:44:08;;;;;;;35.03;11.98;;;;;;;;;;4968516;28;20082;-71
2023/01/23 02:46:33;;;;;;;35.80;12.07;;;;;;;;;;4967539;28;20061;-71
2023/01/23 02:48:59;;;;;;;36.03;12.00;;;;;;;;;;4968566;28;20039;-71
2023/01/23 02:51:24;;;;;;;42.17;13.85;;;;;;;;;;4968165;28;20027;-71
2023/01/23 02:53:49;;;;;;;32.10;12.23;;;;;;;;;;4969662;28;20042;-71
2023/01/23 02:56:15;;;;;;;31.92;12.38;;;;;;;;;;4968024;28;20046;-71
2023/01/23 03:01:26;;;;;;;37.70;12.15;;;;;;;;;;4963191;28;20070;-71
2023/01/23 03:03:54;;;;;;;39.58;13.65;;;;;;;;;;4983565;28;20038;-71
2023/01/23 03:06:20;;;;;;;40.42;13.00;;;;;;;;;;4966681;28;20626;-71
2023/01/23 03:08:48;;;;;;;40.50;14.57;;;;;;;;;;4968305;28;20111;-71
2023/01/23 03:11:16;;;;;;;52.50;14.07;;;;;;;;;;4950023;28;20443;-71
2023/01/23 03:13:41;;;;;;;57.50;15.27;;;;;;;;;;4968312;28;20031;-71
2023/01/23 03:16:06;;;;;;;56.38;14.57;;;;;;;;;;4982289;28;20170;-71
2023/01/23 03:18:32;;;;;;;46.67;15.43;;;;;;;;;;4967719;28;20038;-71
2023/01/23 03:21:05;;;;;;;43.08;14.50;;;;;;;;;;4969020;28;20054;-71
2023/01/23 03:23:31;;;;;;;45.15;13.73;;;;;;;;;;4964184;28;20031;-71
2023/01/23 03:25:59;;;;;;;40.45;12.77;;;;;;;;;;4968211;28;20463;-71
2023/01/23 03:31:10;;;;;;;33.15;12.70;;;;;;;;;;4967306;28;20097;-71
2023/01/23 03:33:38;;;;;;;46.38;14.13;;;;;;;;;;4960404;28;20043;-71
2023/01/23 03:36:04;;;;;;;45.80;14.48;;;;;;;;;;4948303;28;20031;-71
2023/01/23 03:38:29;;;;;;;37.25;13.63;;;;;;;;;;4962938;28;20097;-71
2023/01/23 03:43:38;;;;;;;44.63;13.88;;;;;;;;;;4967425;28;20045;-71
2023/01/23 03:46:04;;;;;;;42.47;14.65;;;;;;;;;;4981298;28;20055;-71
2023/01/23 03:48:29;;;;;;;39.90;13.10;;;;;;;;;;4967853;28;20031;-71
2023/01/23 03:50:54;;;;;;;42.75;13.95;;;;;;;;;;4967558;28;20945;-71
2023/01/23 03:53:20;;;;;;;37.53;12.50;;;;;;;;;;4968012;28;20047;-71
2023/01/23 03:55:45;;;;;;;43.35;13.35;;;;;;;;;;4949984;28;20561;-71
2023/01/23 03:58:11;;;;;;;45.55;13.98;;;;;;;;;;4954132;28;20489;-71
2023/01/23 04:00:36;;;;;;;39.50;12.85;;;;;;;;;;4967757;28;20043;-71
2023/01/23 04:03:02;;;;;;;38.55;13.15;;;;;;;;;;4966896;28;20102;-72
2023/01/23 04:05:27;;;;;;;30.00;11.85;;;;;;;;;;4949236;28;20038;-71
2023/01/23 04:07:52;;;;;;;40.15;12.48;;;;;;;;;;4949470;28;20042;-71
2023/01/23 04:10:18;;;;;;;42.38;13.88;;;;;;;;;;4966733;28;20118;-71
2023/01/23 04:12:43;;;;;;;38.30;13.98;;;;;;;;;;4967131;28;20039;-71
2023/01/23 04:15:09;;;;;;;44.17;14.13;;;;;;;;;;4967418;28;20035;-71
2023/01/23 04:17:35;;;;;;;46.08;15.73;;;;;;;;;;4967078;28;20058;-71
2023/01/23 04:20:00;;;;;;;41.92;14.38;;;;;;;;;;4967207;28;20047;-71
2023/01/23 04:22:25;;;;;;;37.17;13.05;;;;;;;;;;4966784;28;20039;-71
2023/01/23 04:24:50;;;;;;;49.28;14.45;;;;;;;;;;4967163;28;20047;-72
2023/01/23 04:27:16;;;;;;;44.88;13.10;;;;;;;;;;4967190;28;20034;-71
2023/01/23 04:29:41;;;;;;;43.88;13.82;;;;;;;;;;4982756;28;20027;-72
2023/01/23 04:32:08;;;;;;;34.90;12.25;;;;;;;;;;4965775;28;20480;-71
2023/01/23 04:34:34;;;;;;;43.70;13.60;;;;;;;;;;4967080;28;20058;-71
2023/01/23 04:36:59;;;;;;;37.55;13.13;;;;;;;;;;4967074;28;20062;-71
2023/01/23 04:39:24;;;;;;;47.28;13.43;;;;;;;;;;4966993;28;20054;-71
2023/01/23 04:41:50;;;;;;;41.90;13.95;;;;;;;;;;4966568;28;20046;-71
2023/01/23 04:44:21;;;;;;;39.47;13.55;;;;;;;;;;4954835;28;20045;-71
2023/01/23 04:46:54;;;;;;;42.75;14.00;;;;;;;;;;4965720;28;20142;-71
2023/01/23 04:49:21;;;;;;;40.13;13.68;;;;;;;;;;4951909;28;20049;-71
2023/01/23 04:51:48;;;;;;;39.20;13.60;;;;;;;;;;4952340;28;20504;-71
2023/01/23 04:54:15;;;;;;;45.67;14.57;;;;;;;;;;4961491;28;20026;-71
2023/01/23 04:56:40;;;;;;;37.95;12.13;;;;;;;;;;4970103;28;20110;-71
2023/01/23 04:59:05;;;;;;;39.15;12.35;;;;;;;;;;4969702;28;20178;-71
2023/01/23 05:01:31;;;;;;;42.90;13.93;;;;;;;;;;4969369;28;20042;-71
2023/01/23 05:03:57;;;;;;;46.03;14.55;;;;;;;;;;4953159;28;20042;-72
2023/01/23 05:06:22;;;;;;;40.22;13.38;;;;;;;;;;4982245;28;20034;-72
2023/01/23 05:08:47;;;;;;;47.17;12.73;;;;;;;;;;4966742;28;20027;-71
2023/01/23 05:11:13;;;;;;;45.72;14.35;;;;;;;;;;4965082;28;20547;-71
2023/01/23 05:13:38;;;;;;;45.72;13.30;;;;;;;;;;4952734;28;20031;-71
2023/01/23 05:16:04;;;;;;;39.38;12.63;;;;;;;;;;4969866;28;20038;-71
2023/01/23 05:18:29;;;;;;;50.33;14.32;;;;;;;;;;4969930;28;20058;-71
2023/01/23 05:20:54;;;;;;;43.17;13.15;;;;;;;;;;4970458;28;20037;-71
2023/01/23 05:23:20;;;;;;;44.53;14.35;;;;;;;;;;4969650;28;20034;-71
2023/01/23 05:25:45;;;;;;;48.55;14.40;;;;;;;;;;4964338;28;20050;-71
2023/01/23 05:28:11;;;;;;;45.88;13.55;;;;;;;;;;4964241;28;20042;-72
2023/01/23 05:30:36;;;;;;;40.65;12.85;;;;;;;;;;4969990;28;20046;-71
2023/01/23 05:33:02;;;;;;;46.28;14.25;;;;;;;;;;4965765;28;20098;-71
2023/01/23 05:35:27;;;;;;;40.92;13.13;;;;;;;;;;4952737;28;20034;-71
2023/01/23 05:37:53;;;;;;;41.35;13.38;;;;;;;;;;4969359;28;20038;-71
2023/01/23 05:40:19;;;;;;;38.13;13.60;;;;;;;;;;4969766;28;20034;-71
2023/01/23 05:42:45;;;;;;;42.78;13.77;;;;;;;;;;4968902;28;20765;-71
2023/01/23 05:45:11;;;;;;;43.33;14.00;;;;;;;;;;4970414;28;20050;-71
2023/01/23 05:47:37;;;;;;;42.78;14.68;;;;;;;;;;4969107;28;20034;-71
2023/01/23 05:50:04;;;;;;;36.42;11.55;;;;;;;;;;4970062;28;20042;-71
2023/01/23 05:52:29;;;;;;;53.05;13.57;;;;;;;;;;4969395;28;20594;-71
2023/01/23 05:54:55;;;;;;;52.72;14.43;;;;;;;;;;4951959;28;20067;-71
2023/01/23 05:57:20;;;;;;;51.92;14.63;;;;;;;;;;4961459;28;20027;-71
2023/01/23 05:59:45;;;;;;;42.90;14.75;;;;;;;;;;4964071;28;20037;-71
2023/01/23 06:02:11;;;;;;;38.88;13.35;;;;;;;;;;4968158;28;20415;-71
2023/01/23 06:04:36;;;;;;;48.47;14.73;;;;;;;;;;4969041;28;20086;-71
2023/01/23 06:07:01;;;;;;;60.17;15.77;;;;;;;;;;4969449;28;20047;-71
2023/01/23 06:09:27;;;;;;;45.53;15.38;;;;;;;;;;4967352;28;20108;-71
2023/01/23 06:11:52;;;;;;;37.42;13.98;;;;;;;;;;4968162;28;20023;-71
2023/01/23 06:14:17;;;;;;;49.03;14.32;;;;;;;;;;4963523;28;20137;-71
2023/01/23 06:16:43;;;;;;;55.97;14.40;;;;;;;;;;4951365;28;20047;-71
2023/01/23 06:19:09;;;;;;;41.40;13.27;;;;;;;;;;4957261;28;20042;-71
2023/01/23 06:21:35;;;;;;;51.60;14.77;;;;;;;;;;4968541;28;20065;-71
2023/01/23 06:24:01;;;;;;;47.17;14.10;;;;;;;;;;4968959;28;20034;-71
2023/01/23 06:26:26;;;;;;;41.42;14.45;;;;;;;;;;4968870;28;20035;-71
2023/01/23 06:28:52;;;;;;;60.17;15.93;;;;;;;;;;4967002;28;20034;-71
2023/01/23 06:31:17;;;;;;;46.15;14.65;;;;;;;;;;4948124;28;20050;-71
2023/01/23 06:33:42;;;;;;;45.78;13.30;;;;;;;;;;4955925;28;20044;-72
2023/01/23 06:36:08;;;;;;;55.10;14.93;;;;;;;;;;4955219;28;20144;-71
2023/01/23 06:38:34;;;;;;;50.92;15.13;;;;;;;;;;4964240;28;20046;-73
2023/01/23 06:41:00;;;;;;;45.58;14.23;;;;;;;;;;4958877;28;20906;-71
2023/01/23 06:43:26;;;;;;;51.92;16.25;;;;;;;;;;4936748;28;20098;-71
2023/01/23 06:45:51;;;;;;;41.45;14.10;;;;;;;;;;4955015;28;20063;-71
2023/01/23 06:48:16;;;;;;;52.67;14.18;;;;;;;;;;4963218;28;20192;-70
2023/01/23 06:50:43;;;;;;;43.92;13.85;;;;;;;;;;4951257;28;20086;-71
2023/01/23 06:53:13;;;;;;;53.85;13.73;;;;;;;;;;4969076;28;20042;-71
2023/01/23 06:55:39;;;;;;;57.67;16.63;;;;;;;;;;4982924;28;20026;-71
2023/01/23 06:58:05;;;;;;;49.60;14.65;;;;;;;;;;4954543;28;20046;-71
2023/01/23 07:00:33;;;;;;;54.88;15.82;;;;;;;;;;4968063;28;20023;-71
2023/01/23 07:03:02;;;;;;;47.25;14.15;;;;;;;;;;4968162;28;20451;-70
2023/01/23 07:05:28;;;;;;;44.38;14.93;;;;;;;;;;4982657;28;20037;-70
2023/01/23 07:07:53;;;;;;;57.63;16.40;;;;;;;;;;4965073;28;20035;-71
2023/01/23 07:10:19;;;;;;;61.80;15.63;;;;;;;;;;4963754;28;20027;-70
2023/01/23 07:12:44;;;;;;;52.47;14.05;;;;;;;;;;4962794;28;20046;-71
2023/01/23 07:15:10;;;;;;;52.72;15.43;;;;;;;;;;4967672;28;20076;-70
2023/01/23 07:17:35;;;;;;;42.90;13.20;;;;;;;;;;4968250;28;20132;-71
2023/01/23 07:20:00;;;;;;;49.38;16.63;;;;;;;;;;4967746;28;20512;-71
2023/01/23 07:22:26;;;;;;;47.60;14.20;;;;;;;;;;4948989;28;20559;-70
2023/01/23 07:24:51;;;;;;;55.78;17.48;;;;;;;;;;4942876;28;20451;-70
2023/01/23 07:27:16;;;;;;;62.10;14.98;;;;;;;;;;4966232;28;20054;-70
2023/01/23 07:29:42;;;;;;;58.17;16.30;;;;;;;;;;4977655;28;20038;-70
2023/01/23 07:32:07;;;;;;;62.80;16.08;;;;;;;;;;4944674;28;20039;-70
2023/01/23 07:34:33;;;;;;;59.05;15.95;;;;;;;;;;4957606;28;20154;-70
2023/01/23 07:36:58;;;;;;;58.58;16.23;;;;;;;;;;4981493;28;20034;-70
2023/01/23 07:39:24;;;;;;;44.13;16.10;;;;;;;;;;4965515;28;20033;-70
2023/01/23 07:41:49;;;;;;;44.50;14.75;;;;;;;;;;4953024;28;20019;-71
2023/01/23 07:44:17;;;;;;;48.25;14.80;;;;;;;;;;4946239;28;20038;-70
2023/01/23 07:46:47;;;;;;;58.08;15.20;;;;;;;;;;4950992;28;20035;-70
2023/01/23 07:49:13;;;;;;;52.20;14.98;;;;;;;;;;4959937;28;20062;-71
2023/01/23 07:51:39;;;;;;;42.47;14.70;;;;;;;;;;4944884;28;20633;-71
2023/01/23 07:54:04;;;;;;;45.28;13.15;;;;;;;;;;4961638;28;20030;-70
2023/01/23 07:56:31;;;;;;;64.00;16.33;;;;;;;;;;4946360;28;20031;-70
2023/01/23 07:58:56;;;;;;;55.78;17.02;;;;;;;;;;4954835;28;20030;-70
2023/01/23 08:01:22;;;;;;;61.08;16.83;;;;;;;;;;4937934;28;20050;-71
2023/01/23 08:03:47;;;;;;;57.65;16.38;;;;;;;;;;4959968;28;20047;-70
2023/01/23 08:06:13;;;;;;;53.03;16.58;;;;;;;;;;4964087;28;20407;-70
2023/01/23 08:08:38;;;;;;;63.28;17.05;;;;;;;;;;4948114;28;20526;-70
2023/01/23 08:11:05;;;;;;;43.88;13.98;;;;;;;;;;4966834;28;20678;-70
2023/01/23 08:13:31;;;;;;;52.25;15.70;;;;;;;;;;4964653;28;20067;-71
2023/01/23 08:15:57;;;;;;;47.53;15.10;;;;;;;;;;4935020;28;20077;-71
2023/01/23 08:18:22;;;;;;;54.40;14.10;;;;;;;;;;4960181;28;20937;-71
2023/01/23 08:20:54;;;;;;;52.30;15.00;;;;;;;;;;4960711;28;20027;-70
2023/01/23 08:23:23;;;;;;;34.70;11.38;;;;;;;;;;4964854;28;20031;-70
2023/01/23 08:25:55;;;;;;;46.05;13.82;;;;;;;;;;4951722;28;20035;-70
2023/01/23 08:28:21;;;;;;;63.05;15.15;;;;;;;;;;4968436;28;20035;-70
2023/01/23 08:30:47;;;;;;;39.05;12.65;;;;;;;;;;4968779;28;20602;-70
2023/01/23 08:33:13;;;;;;;57.13;15.55;;;;;;;;;;4951502;28;20022;-70
2023/01/23 08:35:38;;;;;;;46.08;15.05;;;;;;;;;;4969791;28;20023;-70
2023/01/23 08:38:04;;;;;;;52.22;14.93;;;;;;;;;;4968067;28;20053;-71
2023/01/23 08:40:29;;;;;;;37.72;12.43;;;;;;;;;;4966718;28;20569;-70
2023/01/23 08:42:55;;;;;;;53.28;14.15;;;;;;;;;;4967900;28;20121;-70
2023/01/23 08:45:21;;;;;;;44.53;14.18;;;;;;;;;;4967345;28;20055;-70
2023/01/23 08:47:46;;;;;;;40.78;14.00;;;;;;;;;;4982906;28;20023;-70
2023/01/23 08:50:12;;;;;;;47.65;13.45;;;;;;;;;;4969044;28;20042;-71
2023/01/23 08:52:37;;;;;;;43.38;12.85;;;;;;;;;;4955598;28;20042;-71
2023/01/23 08:55:03;;;;;;;50.67;15.73;;;;;;;;;;4949870;28;20047;-71
2023/01/23 08:57:28;;;;;;;54.70;15.20;;;;;;;;;;4957435;28;20042;-71
2023/01/23 08:59:53;;;;;;;47.45;11.15;;;;;;;;;;4969321;28;20022;-71
2023/01/23 09:02:20;;;;;;;38.13;12.73;;;;;;;;;;4951370;28;20027;-71
2023/01/23 09:04:45;;;;;;;49.05;13.43;;;;;;;;;;4970161;28;20118;-71
2023/01/23 09:07:11;;;;;;;30.98;10.82;;;;;;;;;;4983825;28;20510;-71
2023/01/23 09:09:36;;;;;;;40.40;11.70;;;;;;;;;;4966152;28;20716;-70
2023/01/23 09:12:01;;;;;;;41.33;11.30;;;;;;;;;;4968777;28;20027;-70
2023/01/23 09:14:27;;;;;;;49.47;14.00;;;;;;;;;;4984527;28;20182;-70
2023/01/23 09:16:52;;;;;;;41.70;12.07;;;;;;;;;;4976397;28;20026;-70
2023/01/23 09:19:18;;;;;;;40.60;11.35;;;;;;;;;;4967372;28;20030;-70
2023/01/23 09:21:43;;;;;;;38.30;12.63;;;;;;;;;;4966901;28;20042;-70
2023/01/23 09:24:08;;;;;;;43.30;12.00;;;;;;;;;;4964512;28;20025;-71
2023/01/23 09:26:34;;;;;;;37.20;11.45;;;;;;;;;;4962863;28;20110;-69
2023/01/23 09:29:00;;;;;;;38.42;13.52;;;;;;;;;;4962749;28;20030;-71
2023/01/23 09:31:25;;;;;;;49.38;13.60;;;;;;;;;;4964696;28;20034;-71
2023/01/23 09:33:51;;;;;;;47.17;14.05;;;;;;;;;;4960997;28;20045;-71
2023/01/23 09:36:16;;;;;;;45.15;14.13;;;;;;;;;;4979699;28;20500;-71
2023/01/23 09:38:41;;;;;;;40.13;13.07;;;;;;;;;;4968821;28;20026;-71
2023/01/23 09:41:19;;;;;;;39.05;13.30;;;;;;;;;;4966466;28;20098;-71
2023/01/23 09:43:52;;;;;;;42.22;13.18;;;;;;;;;;4968137;28;20049;-71
2023/01/23 09:46:25;;;;;;;42.05;14.50;;;;;;;;;;4967078;28;20042;-71
2023/01/23 09:49:02;;;;;;;44.28;13.00;;;;;;;;;;4981835;28;20038;-70
2023/01/23 09:51:32;;;;;;;47.42;17.13;;;;;;;;;;4958770;28;20050;-70
2023/01/23 09:54:03;;;;;;;49.97;13.52;;;;;;;;;;4969713;28;20031;-70
2023/01/23 09:56:43;;;;;;;34.47;13.25;;;;;;;;;;4981555;28;20664;-70
2023/01/23 09:59:09;;;;;;;44.58;12.77;;;;;;;;;;4956583;28;20035;-70
2023/01/23 10:01:35;;;;;;;36.90;13.43;;;;;;;;;;4966697;28;20053;-70
2023/01/23 10:04:02;;;;;;;40.92;12.45;;;;;;;;;;4967238;28;20037;-71
2023/01/23 10:06:30;;;;;;;36.35;12.32;;;;;;;;;;4967708;28;20030;-71
2023/01/23 10:09:19;;;;;;;37.50;13.02;;;;;;;;;;4982543;28;20719;-70
2023/01/23 10:12:05;;;;;;;36.90;11.93;;;;;;;;;;4966492;28;20094;-71
2023/01/23 10:15:06;;;;;;;39.85;12.57;;;;;;;;;;4966743;28;20038;-72
2023/01/23 10:17:43;;;;;;;39.25;12.90;;;;;;;;;;4976270;28;20404;-71
2023/01/23 10:20:20;;;;;;;36.03;12.27;;;;;;;;;;4964152;28;20053;-70
2023/01/23 10:22:53;;;;;;;41.85;13.90;;;;;;;;;;4953957;28;20039;-70
2023/01/23 10:25:25;;;;;;;31.53;10.93;;;;;;;;;;4964344;28;20039;-70
2023/01/23 10:27:57;;;;;;;39.20;12.63;;;;;;;;;;4974248;28;20089;-70
2023/01/23 10:30:32;;;;;;;41.97;11.35;;;;;;;;;;4950162;28;20026;-70
2023/01/23 10:33:01;;;;;;;38.60;12.70;;;;;;;;;;4964409;28;20035;-70
2023/01/23 10:36:00;;;;;;;36.45;12.38;;;;;;;;;;4958757;28;20047;-70
2023/01/23 10:38:32;;;;;;;39.72;13.63;;;;;;;;;;4961259;28;20042;-70
2023/01/23 10:41:13;;;;;;;46.25;13.73;;;;;;;;;;4968134;28;20042;-70
2023/01/23 10:43:44;;;;;;;45.45;13.38;;;;;;;;;;4940657;28;20043;-70
2023/01/23 10:46:14;;;;;;;38.13;11.55;;;;;;;;;;4958188;28;20127;-70
2023/01/23 10:48:50;;;;;;;40.05;11.75;;;;;;;;;;4965421;28;20030;-70
2023/01/23 10:51:33;;;;;;;32.05;11.38;;;;;;;;;;4960032;28;20031;-70
2023/01/23 10:54:12;;;;;;;30.55;10.75;;;;;;;;;;4983450;28;20065;-70
2023/01/23 10:56:57;;;;;;;40.80;13.20;;;;;;;;;;4967989;28;20109;-70
2023/01/23 10:59:31;;;;;;;33.30;11.15;;;;;;;;;;4971351;28;20505;-69
2023/01/23 11:01:58;;;;;;;43.58;12.65;;;;;;;;;;4966910;28;20066;-70
2023/01/23 11:04:27;;;;;;;33.30;10.70;;;;;;;;;;4967820;28;20031;-70
2023/01/23 11:07:10;;;;;;;20.75;7.82;;;;;;;;;;4949895;28;20246;-71
2023/01/23 11:09:49;;;;;;;39.28;12.50;;;;;;;;;;4965575;28;20105;-70
2023/01/23 11:12:18;;;;;;;46.15;13.85;;;;;;;;;;4966166;28;20037;-70
2023/01/23 11:14:44;;;;;;;30.23;11.68;;;;;;;;;;4955294;28;20019;-70
2023/01/23 11:17:17;;;;;;;34.00;11.57;;;;;;;;;;4962830;28;20050;-72
2023/01/23 11:19:44;;;;;;;33.40;12.98;;;;;;;;;;4958293;28;20520;-72
2023/01/23 11:22:26;;;;;;;30.30;10.70;;;;;;;;;;4953575;28;20446;-72
2023/01/23 11:24:52;;;;;;;38.80;13.20;;;;;;;;;;4947004;28;20049;-71
2023/01/23 11:27:25;;;;;;;41.10;12.35;;;;;;;;;;4941601;28;20026;-72
2023/01/23 11:30:11;;;;;;;40.15;13.77;;;;;;;;;;4963557;28;20550;-72
2023/01/23 11:33:10;;;;;;;38.08;13.05;;;;;;;;;;4937583;28;20512;-72
2023/01/23 11:35:42;;;;;;;40.15;12.30;;;;;;;;;;4949340;28;20471;-72
2023/01/23 11:38:14;;;;;;;32.30;12.30;;;;;;;;;;4966634;28;20045;-72
2023/01/23 11:40:40;;;;;;;36.35;11.65;;;;;;;;;;4965689;28;20035;-72
2023/01/23 11:43:13;;;;;;;29.73;10.95;;;;;;;;;;4966406;28;20041;-72
2023/01/23 11:46:12;;;;;;;36.95;11.27;;;;;;;;;;4965265;28;20047;-72
2023/01/23 11:48:56;;;;;;;27.80;10.35;;;;;;;;;;4965112;28;20118;-72
2023/01/23 11:51:47;;;;;;;33.72;10.82;;;;;;;;;;4958765;28;20034;-72
2023/01/23 11:54:35;;;;;;;43.40;11.82;;;;;;;;;;4946444;28;20051;-72
2023/01/23 11:57:22;;;;;;;33.53;11.50;;;;;;;;;;4956305;28;20110;-72
2023/01/23 12:00:28;;;;;;;35.88;12.52;;;;;;;;;;4960125;28;20105;-73
2023/01/23 12:03:25;;;;;;;30.83;10.77;;;;;;;;;;4948819;28;20453;-72
2023/01/23 12:06:08;;;;;;;35.00;11.52;;;;;;;;;;4965928;28;20086;-72
2023/01/23 12:08:48;;;;;;;35.58;13.05;;;;;;;;;;4956729;28;20039;-72
2023/01/23 12:11:15;;;;;;;32.50;11.77;;;;;;;;;;4979468;28;20042;-72
2023/01/23 12:13:44;;;;;;;29.85;11.63;;;;;;;;;;4964101;28;20039;-72
2023/01/23 12:16:27;;;;;;;36.85;13.55;;;;;;;;;;4966265;28;20069;-72
2023/01/23 12:19:13;;;;;;;;;;;;;;;;;;4953187;28;20126;-72
2023/01/23 12:21:48;;;;;;;36.25;11.73;;;;;;;;;;4950481;28;21335;-72
2023/01/23 12:24:17;;;;;;;36.17;11.75;;;;;;;;;;4953396;28;20026;-72
2023/01/23 12:27:05;;;;;;;35.38;11.95;;;;;;;;;;4955716;28;20023;-72
2023/01/23 12:29:49;;;;;;;35.10;13.00;;;;;;;;;;4940012;28;20054;-72
2023/01/23 12:32:27;;;;;;;32.65;12.02;;;;;;;;;;4945699;28;20035;-72
2023/01/23 12:35:07;;;;;;;33.75;10.43;;;;;;;;;;4966137;28;20045;-72
2023/01/23 12:37:57;;;;;;;41.95;11.73;;;;;;;;;;4948438;28;20483;-72
2023/01/23 12:40:29;;;;;;;27.75;10.07;;;;;;;;;;4960273;28;20089;-72
2023/01/23 12:43:08;;;;;;;36.70;10.73;;;;;;;;;;4966052;28;20043;-72
2023/01/23 12:45:34;;;;;;;26.60;10.75;;;;;;;;;;4965742;28;20054;-72
2023/01/23 12:48:14;;;;;;;28.38;10.35;;;;;;;;;;4966113;28;20048;-72
2023/01/23 12:50:52;;;;;;;32.60;12.40;;;;;;;;;;4958518;28;20037;-72
2023/01/23 12:53:21;;;;;;;41.17;14.23;;;;;;;;;;4963923;28;20050;-72
2023/01/23 12:56:00;;;;;;;31.75;10.82;;;;;;;;;;4965778;28;20122;-73
2023/01/23 12:58:28;;;;;;;34.42;12.90;;;;;;;;;;4943477;28;20050;-73
2023/01/23 13:01:06;;;;;;;27.55;11.75;;;;;;;;;;4950495;28;20500;-72
2023/01/23 13:03:44;;;;;;;28.58;11.13;;;;;;;;;;4954377;28;20045;-72
2023/01/23 13:06:15;;;;;;;34.70;12.25;;;;;;;;;;4948395;28;20027;-72
2023/01/23 13:09:00;;;;;;;32.30;11.10;;;;;;;;;;4966123;28;20041;-72
2023/01/23 13:12:03;;;;;;;35.08;12.82;;;;;;;;;;4956517;28;20516;-72
2023/01/23 13:14:31;;;;;;;41.25;13.88;;;;;;;;;;4958302;28;20059;-72
2023/01/23 13:17:02;;;;;;;38.40;12.85;;;;;;;;;;4965003;28;20035;-71
2023/01/23 13:22:19;;;;;;;30.67;12.15;;;;;;;;;;4963928;28;20081;-72
2023/01/23 13:27:34;;;;;;;34.35;11.07;;;;;;;;;;4966726;28;20065;-72
2023/01/23 13:30:01;;;;;;;29.38;10.52;;;;;;;;;;4963747;28;20039;-72
2023/01/23 13:32:29;;;;;;;33.33;12.57;;;;;;;;;;4956315;28;20787;-72
2023/01/23 13:34:55;;;;;;;37.47;12.23;;;;;;;;;;4963970;28;20046;-72
2023/01/23 13:37:49;;;;;;;31.00;11.70;;;;;;;;;;4968149;28;20035;-72
2023/01/23 13:40:23;;;;;;;27.58;9.85;;;;;;;;;;4966796;28;20038;-72
2023/01/23 13:42:49;;;;;;;37.28;12.52;;;;;;;;;;4983040;28;20157;-72
2023/01/23 13:45:27;;;;;;;37.42;13.48;;;;;;;;;;4967713;28;20508;-72
2023/01/23 13:51:17;;;;;;;31.95;12.85;;;;;;;;;;4968219;28;20069;-72
2023/01/23 13:56:40;;;;;;;24.65;9.35;;;;;;;;;;4966143;28;20038;-72
2023/01/23 13:59:13;;;;;;;35.25;12.38;;;;;;;;;;4950424;28;20042;-72
2023/01/23 14:07:44;;;;;;;41.47;14.85;;;;;;;;;;4960305;28;20690;-71
2023/01/23 14:10:18;;;;;;;34.40;12.65;;;;;;;;;;4965467;28;20050;-71
2023/01/23 14:12:44;;;;;;;32.65;12.52;;;;;;;;;;4966637;28;20043;-71
2023/01/23 14:18:45;;;;;;;42.33;14.48;;;;;;;;;;4967759;28;20045;-71
2023/01/23 14:21:32;;;;;;;32.85;11.85;;;;;;;;;;4949921;28;20018;-71
2023/01/23 14:24:02;;;;;;;37.28;15.30;;;;;;;;;;4949796;28;20054;-72
2023/01/23 14:26:30;;;;;;;30.08;10.25;;;;;;;;;;4966921;28;20122;-71
2023/01/23 14:29:16;;;;;;;36.90;12.85;;;;;;;;;;4966652;28;20054;-71
2023/01/23 14:31:43;;;;;;;32.58;11.75;;;;;;;;;;4948582;28;20039;-71
2023/01/23 14:34:27;;;;;;;31.02;11.13;;;;;;;;;;4966612;28;20637;-71
2023/01/23 14:37:03;;;;;;;42.40;13.38;;;;;;;;;;4948950;28;20119;-72
2023/01/23 14:39:30;;;;;;;35.28;12.75;;;;;;;;;;4965390;28;20022;-72
2023/01/23 14:41:58;;;;;;;35.13;10.80;;;;;;;;;;4966432;28;20027;-72
2023/01/23 14:44:29;;;;;;;30.98;11.95;;;;;;;;;;4965906;28;20427;-72
2023/01/23 14:46:57;;;;;;;34.70;11.70;;;;;;;;;;4966133;28;20059;-72
2023/01/23 14:49:30;;;;;;;24.23;10.68;;;;;;;;;;4949302;28;20102;-72
2023/01/23 14:52:00;;;;;;;27.15;9.85;;;;;;;;;;4966444;28;20164;-71
2023/01/23 14:54:25;;;;;;;34.05;12.93;;;;;;;;;;4958328;28;20034;-72
2023/01/23 14:56:53;;;;;;;31.58;10.32;;;;;;;;;;4968188;28;20033;-72
2023/01/23 14:59:22;;;;;;;34.80;13.30;;;;;;;;;;4949796;28;20049;-72
2023/01/23 15:01:59;;;;;;;34.95;12.65;;;;;;;;;;4931859;28;20039;-71